sensor_id;sensor_type;location;lat;lon;timestamp;temperature;humidity
11991;DHT22;6055;52.522;13.446;2022-12-18T00:01:36;-3.40;99.90
11991;DHT22;6055;52.522;13.446;2022-12-18T00:04:04;-3.40;99.90
11991;DHT22;6055;52.522;13.446;2022-12-18T00:06:31;-3.40;99.90
11991;DHT22;6055;52.522;13.446;2022-12-18T00:08:58;-3.40;99.90
11991;DHT22;6055;52.522;13.446;2022-12-18T00:11:26;-3.40;99.90
11991;DHT22;6055;52.522;13.446;2022-12-18T00:13:53;-3.40;99.90
11991;DHT22;6055;52.522;13.446;2022-12-18T00:16:21;-3.40;99.90
11991;DHT22;6055;52.522;13.446;2022-12-18T00:18:48;-3.40;99.90
11991;DHT22;6055;52.522;13.446;2022-12-18T00:21:15;-3.40;99.90
11991;DHT22;6055;52.522;13.446;2022-12-18T00:23:42;-3.40;99.90
11991;DHT22;6055;52.522;13.446;2022-12-18T00:26:14;-3.50;99.90
11991;DHT22;6055;52.522;13.446;2022-12-18T00:28:40;-3.50;99.90
11991;DHT22;6055;52.522;13.446;2022-12-18T00:31:11;-3.50;99.90
11991;DHT22;6055;52.522;13.446;2022-12-18T00:33:37;-3.50;99.90
11991;DHT22;6055;52.522;13.446;2022-12-18T00:36:05;-3.50;99.90
11991;DHT22;6055;52.522;13.446;2022-12-18T00:38:31;-3.60;99.90
11991;DHT22;6055;52.522;13.446;2022-12-18T00:40:56;-3.60;99.90
11991;DHT22;6055;52.522;13.446;2022-12-18T00:43:22;-3.60;99.90
11991;DHT22;6055;52.522;13.446;2022-12-18T00:45:47;-3.60;99.90
11991;DHT22;6055;52.522;13.446;2022-12-18T00:48:13;-3.60;99.90
11991;DHT22;6055;52.522;13.446;2022-12-18T00:50:38;-3.60;99.90
11991;DHT22;6055;52.522;13.446;2022-12-18T00:53:04;-3.60;99.90
11991;DHT22;6055;52.522;13.446;2022-12-18T00:55:30;-3.50;99.90
11991;DHT22;6055;52.522;13.446;2022-12-18T00:57:55;-3.60;99.90
11991;DHT22;6055;52.522;13.446;2022-12-18T01:00:21;-3.60;99.90
11991;DHT22;6055;52.522;13.446;2022-12-18T01:02:47;-3.60;99.90
11991;DHT22;6055;52.522;13.446;2022-12-18T01:05:13;-3.70;99.90
11991;DHT22;6055;52.522;13.446;2022-12-18T01:07:39;-3.70;99.90
11991;DHT22;6055;52.522;13.446;2022-12-18T01:10:06;-3.70;99.90
11991;DHT22;6055;52.522;13.446;2022-12-18T01:12:33;-3.70;99.90
11991;DHT22;6055;52.522;13.446;2022-12-18T01:14:58;-3.80;99.90
11991;DHT22;6055;52.522;13.446;2022-12-18T01:17:24;-3.80;99.90
11991;DHT22;6055;52.522;13.446;2022-12-18T01:19:50;-3.80;99.90
11991;DHT22;6055;52.522;13.446;2022-12-18T01:22:15;-3.90;99.90
11991;DHT22;6055;52.522;13.446;2022-12-18T01:24:40;-3.90;99.90
11991;DHT22;6055;52.522;13.446;2022-12-18T01:27:06;-3.90;99.90
11991;DHT22;6055;52.522;13.446;2022-12-18T01:29:32;-3.90;99.90
11991;DHT22;6055;52.522;13.446;2022-12-18T01:31:57;-3.90;99.90
11991;DHT22;6055;52.522;13.446;2022-12-18T01:34:24;-3.90;99.90
11991;DHT22;6055;52.522;13.446;2022-12-18T01:36:49;-3.90;99.90
11991;DHT22;6055;52.522;13.446;2022-12-18T01:39:17;-4.00;99.90
11991;DHT22;6055;52.522;13.446;2022-12-18T01:41:43;-4.00;99.90
11991;DHT22;6055;52.522;13.446;2022-12-18T01:44:53;-4.10;99.90
11991;DHT22;6055;52.522;13.446;2022-12-18T01:47:47;-4.10;99.90
11991;DHT22;6055;52.522;13.446;2022-12-18T01:50:17;-4.00;99.90
11991;DHT22;6055;52.522;13.446;2022-12-18T01:52:48;-4.00;99.90
11991;DHT22;6055;52.522;13.446;2022-12-18T01:55:17;-4.10;99.90
11991;DHT22;6055;52.522;13.446;2022-12-18T01:57:43;-4.10;99.90
11991;DHT22;6055;52.522;13.446;2022-12-18T02:00:15;-4.10;99.90
11991;DHT22;6055;52.522;13.446;2022-12-18T02:02:43;-4.10;99.90
11991;DHT22;6055;52.522;13.446;2022-12-18T02:05:10;-4.10;99.90
11991;DHT22;6055;52.522;13.446;2022-12-18T02:07:48;-4.00;99.90
11991;DHT22;6055;52.522;13.446;2022-12-18T02:10:29;-4.10;99.90
11991;DHT22;6055;52.522;13.446;2022-12-18T02:18:12;-4.10;99.90
11991;DHT22;6055;52.522;13.446;2022-12-18T02:20:47;-4.10;99.90
11991;DHT22;6055;52.522;13.446;2022-12-18T02:28:46;-4.10;99.90
11991;DHT22;6055;52.522;13.446;2022-12-18T02:31:18;-4.20;99.90
11991;DHT22;6055;52.522;13.446;2022-12-18T02:33:50;-4.20;99.90
11991;DHT22;6055;52.522;13.446;2022-12-18T02:36:17;-4.20;99.90
11991;DHT22;6055;52.522;13.446;2022-12-18T02:38:44;-4.20;99.90
11991;DHT22;6055;52.522;13.446;2022-12-18T02:41:10;-4.30;99.90
11991;DHT22;6055;52.522;13.446;2022-12-18T02:43:36;-4.20;99.90
11991;DHT22;6055;52.522;13.446;2022-12-18T02:46:27;-4.20;99.90
11991;DHT22;6055;52.522;13.446;2022-12-18T02:49:01;-4.20;99.90
11991;DHT22;6055;52.522;13.446;2022-12-18T02:51:44;-4.10;99.90
11991;DHT22;6055;52.522;13.446;2022-12-18T02:54:33;-4.10;99.90
11991;DHT22;6055;52.522;13.446;2022-12-18T02:57:13;-4.10;99.90
11991;DHT22;6055;52.522;13.446;2022-12-18T02:59:49;-4.00;99.90
11991;DHT22;6055;52.522;13.446;2022-12-18T03:02:48;-4.00;99.90
11991;DHT22;6055;52.522;13.446;2022-12-18T03:05:22;-4.00;99.90
11991;DHT22;6055;52.522;13.446;2022-12-18T03:08:12;-4.00;99.90
11991;DHT22;6055;52.522;13.446;2022-12-18T03:10:44;-4.00;99.90
11991;DHT22;6055;52.522;13.446;2022-12-18T03:13:15;-4.00;99.90
11991;DHT22;6055;52.522;13.446;2022-12-18T03:15:45;-4.00;99.90
11991;DHT22;6055;52.522;13.446;2022-12-18T03:18:17;-4.00;99.90
11991;DHT22;6055;52.522;13.446;2022-12-18T03:20:44;-4.00;99.90
11991;DHT22;6055;52.522;13.446;2022-12-18T03:23:16;-4.00;99.90
11991;DHT22;6055;52.522;13.446;2022-12-18T03:25:44;-4.00;99.90
11991;DHT22;6055;52.522;13.446;2022-12-18T03:28:13;-4.00;99.90
11991;DHT22;6055;52.522;13.446;2022-12-18T03:30:41;-4.00;99.90
11991;DHT22;6055;52.522;13.446;2022-12-18T03:33:13;-4.10;99.90
11991;DHT22;6055;52.522;13.446;2022-12-18T03:35:43;-4.10;99.90
11991;DHT22;6055;52.522;13.446;2022-12-18T03:38:09;-4.00;99.90
11991;DHT22;6055;52.522;13.446;2022-12-18T03:40:53;-4.10;99.90
11991;DHT22;6055;52.522;13.446;2022-12-18T03:46:08;-4.10;99.90
11991;DHT22;6055;52.522;13.446;2022-12-18T03:48:48;-4.10;99.90
11991;DHT22;6055;52.522;13.446;2022-12-18T03:51:24;-4.20;99.90
11991;DHT22;6055;52.522;13.446;2022-12-18T03:53:56;-4.20;99.90
11991;DHT22;6055;52.522;13.446;2022-12-18T03:56:26;-4.20;99.90
11991;DHT22;6055;52.522;13.446;2022-12-18T03:58:53;-4.30;99.90
11991;DHT22;6055;52.522;13.446;2022-12-18T04:01:22;-4.30;99.90
11991;DHT22;6055;52.522;13.446;2022-12-18T04:03:49;-4.30;99.90
11991;DHT22;6055;52.522;13.446;2022-12-18T04:06:16;-4.30;99.90
11991;DHT22;6055;52.522;13.446;2022-12-18T04:08:42;-4.30;99.90
11991;DHT22;6055;52.522;13.446;2022-12-18T04:11:08;-4.30;99.90
11991;DHT22;6055;52.522;13.446;2022-12-18T04:13:36;-4.30;99.90
11991;DHT22;6055;52.522;13.446;2022-12-18T04:16:02;-4.30;99.90
11991;DHT22;6055;52.522;13.446;2022-12-18T04:18:27;-4.30;99.90
11991;DHT22;6055;52.522;13.446;2022-12-18T04:20:53;-4.30;99.90
11991;DHT22;6055;52.522;13.446;2022-12-18T04:23:18;-4.30;99.90
11991;DHT22;6055;52.522;13.446;2022-12-18T04:25:44;-4.30;99.90
11991;DHT22;6055;52.522;13.446;2022-12-18T04:28:10;-4.30;99.90
11991;DHT22;6055;52.522;13.446;2022-12-18T04:30:35;-4.30;99.90
11991;DHT22;6055;52.522;13.446;2022-12-18T04:33:01;-4.40;99.90
11991;DHT22;6055;52.522;13.446;2022-12-18T04:35:26;-4.40;99.90
11991;DHT22;6055;52.522;13.446;2022-12-18T04:37:52;-4.40;99.90
11991;DHT22;6055;52.522;13.446;2022-12-18T04:40:17;-4.30;99.90
11991;DHT22;6055;52.522;13.446;2022-12-18T04:42:43;-4.30;99.90
11991;DHT22;6055;52.522;13.446;2022-12-18T04:45:09;-4.30;99.90
11991;DHT22;6055;52.522;13.446;2022-12-18T04:47:34;-4.40;99.90
11991;DHT22;6055;52.522;13.446;2022-12-18T04:50:00;-4.40;99.90
11991;DHT22;6055;52.522;13.446;2022-12-18T04:52:25;-4.50;99.90
11991;DHT22;6055;52.522;13.446;2022-12-18T04:54:51;-4.40;99.90
11991;DHT22;6055;52.522;13.446;2022-12-18T04:57:16;-4.40;99.90
11991;DHT22;6055;52.522;13.446;2022-12-18T04:59:43;-4.40;99.90
11991;DHT22;6055;52.522;13.446;2022-12-18T05:02:09;-4.40;99.90
11991;DHT22;6055;52.522;13.446;2022-12-18T05:04:34;-4.50;99.90
11991;DHT22;6055;52.522;13.446;2022-12-18T05:07:00;-4.50;99.90
11991;DHT22;6055;52.522;13.446;2022-12-18T05:09:25;-4.50;99.90
11991;DHT22;6055;52.522;13.446;2022-12-18T05:11:51;-4.40;99.90
11991;DHT22;6055;52.522;13.446;2022-12-18T05:14:16;-4.40;99.90
11991;DHT22;6055;52.522;13.446;2022-12-18T05:16:44;-4.40;99.90
11991;DHT22;6055;52.522;13.446;2022-12-18T05:19:09;-4.40;99.90
11991;DHT22;6055;52.522;13.446;2022-12-18T05:21:35;-4.40;99.90
11991;DHT22;6055;52.522;13.446;2022-12-18T05:24:00;-4.30;99.90
11991;DHT22;6055;52.522;13.446;2022-12-18T05:26:26;-4.30;99.90
11991;DHT22;6055;52.522;13.446;2022-12-18T05:28:51;-4.30;99.90
11991;DHT22;6055;52.522;13.446;2022-12-18T05:31:17;-4.40;99.90
11991;DHT22;6055;52.522;13.446;2022-12-18T05:33:42;-4.40;99.90
11991;DHT22;6055;52.522;13.446;2022-12-18T05:36:09;-4.40;99.90
11991;DHT22;6055;52.522;13.446;2022-12-18T05:38:36;-4.50;99.90
11991;DHT22;6055;52.522;13.446;2022-12-18T05:41:03;-4.40;99.90
11991;DHT22;6055;52.522;13.446;2022-12-18T05:43:28;-4.40;99.90
11991;DHT22;6055;52.522;13.446;2022-12-18T05:45:54;-4.40;99.90
11991;DHT22;6055;52.522;13.446;2022-12-18T05:48:21;-4.40;99.90
11991;DHT22;6055;52.522;13.446;2022-12-18T05:50:47;-4.40;99.90
11991;DHT22;6055;52.522;13.446;2022-12-18T05:53:18;-4.40;99.90
11991;DHT22;6055;52.522;13.446;2022-12-18T05:55:44;-4.30;99.90
11991;DHT22;6055;52.522;13.446;2022-12-18T05:58:11;-4.30;99.90
11991;DHT22;6055;52.522;13.446;2022-12-18T06:00:44;-4.30;99.90
11991;DHT22;6055;52.522;13.446;2022-12-18T06:03:11;-4.40;99.90
11991;DHT22;6055;52.522;13.446;2022-12-18T06:05:42;-4.40;99.90
11991;DHT22;6055;52.522;13.446;2022-12-18T06:08:09;-4.30;99.90
11991;DHT22;6055;52.522;13.446;2022-12-18T06:10:34;-4.40;99.90
11991;DHT22;6055;52.522;13.446;2022-12-18T06:13:00;-4.30;99.90
11991;DHT22;6055;52.522;13.446;2022-12-18T06:15:26;-4.30;99.90
11991;DHT22;6055;52.522;13.446;2022-12-18T06:17:51;-4.20;99.90
11991;DHT22;6055;52.522;13.446;2022-12-18T06:20:17;-4.30;99.90
11991;DHT22;6055;52.522;13.446;2022-12-18T06:22:42;-4.30;99.90
11991;DHT22;6055;52.522;13.446;2022-12-18T06:25:08;-4.30;99.90
11991;DHT22;6055;52.522;13.446;2022-12-18T06:27:34;-4.20;99.90
11991;DHT22;6055;52.522;13.446;2022-12-18T06:30:00;-4.30;99.90
11991;DHT22;6055;52.522;13.446;2022-12-18T06:32:25;-4.30;99.90
11991;DHT22;6055;52.522;13.446;2022-12-18T06:34:51;-4.20;99.90
11991;DHT22;6055;52.522;13.446;2022-12-18T06:37:17;-4.20;99.90
11991;DHT22;6055;52.522;13.446;2022-12-18T06:39:42;-4.20;99.90
11991;DHT22;6055;52.522;13.446;2022-12-18T06:42:07;-4.20;99.90
11991;DHT22;6055;52.522;13.446;2022-12-18T06:44:33;-4.20;99.90
11991;DHT22;6055;52.522;13.446;2022-12-18T06:46:59;-4.20;99.90
11991;DHT22;6055;52.522;13.446;2022-12-18T06:49:24;-4.20;99.90
11991;DHT22;6055;52.522;13.446;2022-12-18T06:51:50;-4.10;99.90
11991;DHT22;6055;52.522;13.446;2022-12-18T06:54:15;-4.20;99.90
11991;DHT22;6055;52.522;13.446;2022-12-18T06:56:41;-4.20;99.90
11991;DHT22;6055;52.522;13.446;2022-12-18T06:59:06;-4.20;99.90
11991;DHT22;6055;52.522;13.446;2022-12-18T07:01:34;-4.20;99.90
11991;DHT22;6055;52.522;13.446;2022-12-18T07:04:00;-4.20;99.90
11991;DHT22;6055;52.522;13.446;2022-12-18T07:06:26;-4.30;99.90
11991;DHT22;6055;52.522;13.446;2022-12-18T07:08:52;-4.30;99.90
11991;DHT22;6055;52.522;13.446;2022-12-18T07:11:18;-4.30;99.90
11991;DHT22;6055;52.522;13.446;2022-12-18T07:13:45;-4.30;99.90
11991;DHT22;6055;52.522;13.446;2022-12-18T07:16:13;-4.30;99.90
11991;DHT22;6055;52.522;13.446;2022-12-18T07:18:39;-4.20;99.90
11991;DHT22;6055;52.522;13.446;2022-12-18T07:21:06;-4.30;99.90
11991;DHT22;6055;52.522;13.446;2022-12-18T07:23:33;-4.30;99.90
11991;DHT22;6055;52.522;13.446;2022-12-18T07:26:08;-4.30;99.90
11991;DHT22;6055;52.522;13.446;2022-12-18T07:28:34;-4.30;99.90
11991;DHT22;6055;52.522;13.446;2022-12-18T07:31:07;-4.20;99.90
11991;DHT22;6055;52.522;13.446;2022-12-18T07:33:34;-4.20;99.90
11991;DHT22;6055;52.522;13.446;2022-12-18T07:36:00;-4.20;99.90
11991;DHT22;6055;52.522;13.446;2022-12-18T07:38:26;-4.20;99.90
11991;DHT22;6055;52.522;13.446;2022-12-18T07:40:52;-4.20;99.90
11991;DHT22;6055;52.522;13.446;2022-12-18T07:43:17;-4.20;99.90
11991;DHT22;6055;52.522;13.446;2022-12-18T07:45:43;-4.20;99.90
11991;DHT22;6055;52.522;13.446;2022-12-18T07:48:09;-4.20;99.90
11991;DHT22;6055;52.522;13.446;2022-12-18T07:50:34;-4.20;99.90
11991;DHT22;6055;52.522;13.446;2022-12-18T07:53:00;-4.20;99.90
11991;DHT22;6055;52.522;13.446;2022-12-18T07:55:30;-4.20;99.90
11991;DHT22;6055;52.522;13.446;2022-12-18T07:57:56;-4.20;99.90
11991;DHT22;6055;52.522;13.446;2022-12-18T08:00:21;-4.20;99.90
11991;DHT22;6055;52.522;13.446;2022-12-18T08:02:47;-4.10;99.90
11991;DHT22;6055;52.522;13.446;2022-12-18T08:05:13;-4.10;99.90
11991;DHT22;6055;52.522;13.446;2022-12-18T08:07:39;-4.10;99.90
11991;DHT22;6055;52.522;13.446;2022-12-18T08:10:05;-4.10;99.90
11991;DHT22;6055;52.522;13.446;2022-12-18T08:12:30;-4.10;99.90
11991;DHT22;6055;52.522;13.446;2022-12-18T08:14:56;-4.10;99.90
11991;DHT22;6055;52.522;13.446;2022-12-18T08:17:21;-4.10;99.90
11991;DHT22;6055;52.522;13.446;2022-12-18T08:19:47;-4.10;99.90
11991;DHT22;6055;52.522;13.446;2022-12-18T08:22:12;-4.00;99.90
11991;DHT22;6055;52.522;13.446;2022-12-18T08:24:38;-4.10;99.90
11991;DHT22;6055;52.522;13.446;2022-12-18T08:27:03;-4.00;99.90
11991;DHT22;6055;52.522;13.446;2022-12-18T08:29:29;-4.00;99.90
11991;DHT22;6055;52.522;13.446;2022-12-18T08:31:55;-4.00;99.90
11991;DHT22;6055;52.522;13.446;2022-12-18T08:34:21;-4.00;99.90
11991;DHT22;6055;52.522;13.446;2022-12-18T08:36:46;-3.90;99.90
11991;DHT22;6055;52.522;13.446;2022-12-18T08:39:12;-4.00;99.90
11991;DHT22;6055;52.522;13.446;2022-12-18T08:41:37;-4.00;99.90
11991;DHT22;6055;52.522;13.446;2022-12-18T08:44:03;-3.90;99.90
11991;DHT22;6055;52.522;13.446;2022-12-18T08:46:47;-3.90;99.90
11991;DHT22;6055;52.522;13.446;2022-12-18T08:49:12;-3.90;99.90
11991;DHT22;6055;52.522;13.446;2022-12-18T08:51:38;-3.90;99.90
11991;DHT22;6055;52.522;13.446;2022-12-18T08:54:05;-3.90;99.90
11991;DHT22;6055;52.522;13.446;2022-12-18T08:56:30;-3.90;99.90
11991;DHT22;6055;52.522;13.446;2022-12-18T08:58:56;-3.90;99.90
11991;DHT22;6055;52.522;13.446;2022-12-18T09:01:23;-3.90;99.90
11991;DHT22;6055;52.522;13.446;2022-12-18T09:03:49;-3.90;99.90
11991;DHT22;6055;52.522;13.446;2022-12-18T09:06:16;-3.90;99.90
11991;DHT22;6055;52.522;13.446;2022-12-18T09:08:43;-3.80;99.90
11991;DHT22;6055;52.522;13.446;2022-12-18T09:11:13;-3.80;99.90
11991;DHT22;6055;52.522;13.446;2022-12-18T09:13:39;-3.80;99.90
11991;DHT22;6055;52.522;13.446;2022-12-18T09:16:05;-3.80;99.90
11991;DHT22;6055;52.522;13.446;2022-12-18T09:18:30;-3.70;99.90
11991;DHT22;6055;52.522;13.446;2022-12-18T09:20:56;-3.60;99.90
11991;DHT22;6055;52.522;13.446;2022-12-18T09:23:21;-3.60;99.90
11991;DHT22;6055;52.522;13.446;2022-12-18T09:25:47;-3.50;99.90
11991;DHT22;6055;52.522;13.446;2022-12-18T09:28:17;-3.50;99.90
11991;DHT22;6055;52.522;13.446;2022-12-18T09:30:48;-3.50;99.90
11991;DHT22;6055;52.522;13.446;2022-12-18T09:33:15;-3.40;99.90
11991;DHT22;6055;52.522;13.446;2022-12-18T09:35:42;-3.40;99.90
11991;DHT22;6055;52.522;13.446;2022-12-18T09:38:12;-3.30;99.90
11991;DHT22;6055;52.522;13.446;2022-12-18T09:40:48;-3.20;99.90
11991;DHT22;6055;52.522;13.446;2022-12-18T09:43:22;-3.20;99.90
11991;DHT22;6055;52.522;13.446;2022-12-18T09:45:53;-3.20;99.90
11991;DHT22;6055;52.522;13.446;2022-12-18T09:48:25;-3.20;99.90
11991;DHT22;6055;52.522;13.446;2022-12-18T09:50:55;-3.10;99.90
11991;DHT22;6055;52.522;13.446;2022-12-18T09:53:26;-3.10;99.90
11991;DHT22;6055;52.522;13.446;2022-12-18T09:55:52;-3.10;99.90
11991;DHT22;6055;52.522;13.446;2022-12-18T09:58:26;-3.10;99.90
11991;DHT22;6055;52.522;13.446;2022-12-18T10:00:54;-3.10;99.90
11991;DHT22;6055;52.522;13.446;2022-12-18T10:03:20;-3.00;99.90
11991;DHT22;6055;52.522;13.446;2022-12-18T10:06:00;-3.00;99.90
11991;DHT22;6055;52.522;13.446;2022-12-18T10:14:09;-2.90;99.90
11991;DHT22;6055;52.522;13.446;2022-12-18T10:25:22;-2.70;99.90
11991;DHT22;6055;52.522;13.446;2022-12-18T10:27:52;-2.70;99.90
11991;DHT22;6055;52.522;13.446;2022-12-18T10:30:21;-2.60;99.90
11991;DHT22;6055;52.522;13.446;2022-12-18T10:32:46;-2.50;99.90
11991;DHT22;6055;52.522;13.446;2022-12-18T10:35:21;-2.50;99.90
11991;DHT22;6055;52.522;13.446;2022-12-18T10:40:58;-2.40;99.90
11991;DHT22;6055;52.522;13.446;2022-12-18T10:43:33;-2.40;99.90
11991;DHT22;6055;52.522;13.446;2022-12-18T10:46:15;-2.40;99.90
11991;DHT22;6055;52.522;13.446;2022-12-18T10:48:53;-2.30;99.90
11991;DHT22;6055;52.522;13.446;2022-12-18T10:51:36;-2.30;99.90
11991;DHT22;6055;52.522;13.446;2022-12-18T10:54:05;-2.30;99.90
11991;DHT22;6055;52.522;13.446;2022-12-18T10:56:34;-2.30;99.90
11991;DHT22;6055;52.522;13.446;2022-12-18T10:59:06;-2.30;99.90
11991;DHT22;6055;52.522;13.446;2022-12-18T11:01:56;-2.30;99.90
11991;DHT22;6055;52.522;13.446;2022-12-18T11:04:27;-2.20;99.90
11991;DHT22;6055;52.522;13.446;2022-12-18T11:09:27;-2.30;99.90
11991;DHT22;6055;52.522;13.446;2022-12-18T11:11:54;-2.30;99.90
11991;DHT22;6055;52.522;13.446;2022-12-18T11:16:54;-2.20;99.90
11991;DHT22;6055;52.522;13.446;2022-12-18T11:19:37;-2.20;99.90
11991;DHT22;6055;52.522;13.446;2022-12-18T11:22:20;-2.20;99.90
11991;DHT22;6055;52.522;13.446;2022-12-18T11:24:53;-2.20;99.90
11991;DHT22;6055;52.522;13.446;2022-12-18T11:27:20;-2.20;99.90
11991;DHT22;6055;52.522;13.446;2022-12-18T11:29:46;-2.10;99.90
11991;DHT22;6055;52.522;13.446;2022-12-18T11:34:42;-2.20;99.90
11991;DHT22;6055;52.522;13.446;2022-12-18T11:37:09;-2.20;99.90
11991;DHT22;6055;52.522;13.446;2022-12-18T11:39:40;-2.20;99.90
11991;DHT22;6055;52.522;13.446;2022-12-18T11:50:01;-2.30;99.90
11991;DHT22;6055;52.522;13.446;2022-12-18T11:52:38;-2.30;99.90
11991;DHT22;6055;52.522;13.446;2022-12-18T11:55:11;-2.30;99.90
11991;DHT22;6055;52.522;13.446;2022-12-18T11:58:18;-2.30;99.90
11991;DHT22;6055;52.522;13.446;2022-12-18T12:01:00;-2.40;99.90
11991;DHT22;6055;52.522;13.446;2022-12-18T12:04:10;-2.40;99.90
11991;DHT22;6055;52.522;13.446;2022-12-18T12:06:49;-2.40;99.90
11991;DHT22;6055;52.522;13.446;2022-12-18T12:15:40;-2.30;99.90
11991;DHT22;6055;52.522;13.446;2022-12-18T12:18:19;-2.30;99.90
11991;DHT22;6055;52.522;13.446;2022-12-18T12:21:09;-2.40;99.90
11991;DHT22;6055;52.522;13.446;2022-12-18T12:23:57;-2.30;99.90
11991;DHT22;6055;52.522;13.446;2022-12-18T12:27:00;-2.30;99.90
11991;DHT22;6055;52.522;13.446;2022-12-18T12:32:46;-2.20;99.90
11991;DHT22;6055;52.522;13.446;2022-12-18T12:40:31;-2.20;99.90
11991;DHT22;6055;52.522;13.446;2022-12-18T12:45:56;-2.30;99.90
11991;DHT22;6055;52.522;13.446;2022-12-18T12:48:43;-2.30;99.90
11991;DHT22;6055;52.522;13.446;2022-12-18T12:51:21;-2.30;99.90
11991;DHT22;6055;52.522;13.446;2022-12-18T12:53:48;-2.30;99.90
11991;DHT22;6055;52.522;13.446;2022-12-18T12:56:17;-2.30;99.90
11991;DHT22;6055;52.522;13.446;2022-12-18T13:04:23;-2.20;99.90
11991;DHT22;6055;52.522;13.446;2022-12-18T13:07:12;-2.20;99.90
11991;DHT22;6055;52.522;13.446;2022-12-18T13:10:22;-2.20;99.90
11991;DHT22;6055;52.522;13.446;2022-12-18T13:20:43;-2.20;99.90
11991;DHT22;6055;52.522;13.446;2022-12-18T13:31:12;-2.20;99.90
11991;DHT22;6055;52.522;13.446;2022-12-18T13:33:46;-2.10;99.90
11991;DHT22;6055;52.522;13.446;2022-12-18T13:36:32;-2.10;99.90
11991;DHT22;6055;52.522;13.446;2022-12-18T13:39:33;-2.10;99.90
11991;DHT22;6055;52.522;13.446;2022-12-18T13:44:41;-2.10;99.90
11991;DHT22;6055;52.522;13.446;2022-12-18T13:49:54;-2.10;99.90
11991;DHT22;6055;52.522;13.446;2022-12-18T13:52:24;-2.20;99.90
11991;DHT22;6055;52.522;13.446;2022-12-18T13:54:55;-2.20;99.90
11991;DHT22;6055;52.522;13.446;2022-12-18T13:57:36;-2.20;99.90
11991;DHT22;6055;52.522;13.446;2022-12-18T14:02:50;-2.20;99.90
11991;DHT22;6055;52.522;13.446;2022-12-18T14:05:28;-2.30;99.90
11991;DHT22;6055;52.522;13.446;2022-12-18T14:07:54;-2.30;99.90
11991;DHT22;6055;52.522;13.446;2022-12-18T14:10:21;-2.20;99.90
11991;DHT22;6055;52.522;13.446;2022-12-18T14:12:48;-2.20;99.90
11991;DHT22;6055;52.522;13.446;2022-12-18T14:17:54;-2.20;99.90
11991;DHT22;6055;52.522;13.446;2022-12-18T14:20:20;-2.20;99.90
11991;DHT22;6055;52.522;13.446;2022-12-18T14:22:47;-2.30;99.90
11991;DHT22;6055;52.522;13.446;2022-12-18T14:25:19;-2.30;99.90
11991;DHT22;6055;52.522;13.446;2022-12-18T14:28:08;-2.30;99.90
11991;DHT22;6055;52.522;13.446;2022-12-18T14:30:40;-2.30;99.90
11991;DHT22;6055;52.522;13.446;2022-12-18T14:33:13;-2.30;99.90
11991;DHT22;6055;52.522;13.446;2022-12-18T14:35:41;-2.40;99.90
11991;DHT22;6055;52.522;13.446;2022-12-18T14:38:25;-2.40;99.90
11991;DHT22;6055;52.522;13.446;2022-12-18T14:41:11;-2.40;99.90
11991;DHT22;6055;52.522;13.446;2022-12-18T14:43:39;-2.30;99.90
11991;DHT22;6055;52.522;13.446;2022-12-18T14:46:06;-2.40;99.90
11991;DHT22;6055;52.522;13.446;2022-12-18T14:48:50;-2.40;99.90
11991;DHT22;6055;52.522;13.446;2022-12-18T14:51:21;-2.50;99.90
11991;DHT22;6055;52.522;13.446;2022-12-18T14:53:58;-2.50;99.90
11991;DHT22;6055;52.522;13.446;2022-12-18T14:59:00;-2.60;99.90
11991;DHT22;6055;52.522;13.446;2022-12-18T15:01:36;-2.60;99.90
11991;DHT22;6055;52.522;13.446;2022-12-18T15:04:04;-2.60;99.90
11991;DHT22;6055;52.522;13.446;2022-12-18T15:08:56;-2.60;99.90
11991;DHT22;6055;52.522;13.446;2022-12-18T15:11:30;-2.60;99.90
11991;DHT22;6055;52.522;13.446;2022-12-18T15:13:58;-2.60;99.90
11991;DHT22;6055;52.522;13.446;2022-12-18T15:16:24;-2.60;99.90
11991;DHT22;6055;52.522;13.446;2022-12-18T15:18:50;-2.60;99.90
11991;DHT22;6055;52.522;13.446;2022-12-18T15:21:19;-2.60;99.90
11991;DHT22;6055;52.522;13.446;2022-12-18T15:23:50;-2.70;99.90
11991;DHT22;6055;52.522;13.446;2022-12-18T15:26:18;-2.60;99.90
11991;DHT22;6055;52.522;13.446;2022-12-18T15:36:23;-2.50;99.90
11991;DHT22;6055;52.522;13.446;2022-12-18T15:38:53;-2.50;99.90
11991;DHT22;6055;52.522;13.446;2022-12-18T15:41:21;-2.60;99.90
11991;DHT22;6055;52.522;13.446;2022-12-18T15:43:49;-2.50;99.90
11991;DHT22;6055;52.522;13.446;2022-12-18T15:46:17;-2.60;99.90
11991;DHT22;6055;52.522;13.446;2022-12-18T15:48:45;-2.60;99.90
11991;DHT22;6055;52.522;13.446;2022-12-18T15:51:23;-2.60;99.90
11991;DHT22;6055;52.522;13.446;2022-12-18T15:53:52;-2.60;99.90
11991;DHT22;6055;52.522;13.446;2022-12-18T15:56:20;-2.60;99.90
11991;DHT22;6055;52.522;13.446;2022-12-18T15:59:10;-2.60;99.90
11991;DHT22;6055;52.522;13.446;2022-12-18T16:01:36;-2.60;99.90
11991;DHT22;6055;52.522;13.446;2022-12-18T16:04:01;-2.60;99.90
11991;DHT22;6055;52.522;13.446;2022-12-18T16:06:27;-2.60;99.90
11991;DHT22;6055;52.522;13.446;2022-12-18T16:08:52;-2.60;99.90
11991;DHT22;6055;52.522;13.446;2022-12-18T16:11:27;-2.60;99.90
11991;DHT22;6055;52.522;13.446;2022-12-18T16:14:26;-2.60;99.90
11991;DHT22;6055;52.522;13.446;2022-12-18T16:17:00;-2.70;99.90
11991;DHT22;6055;52.522;13.446;2022-12-18T16:19:27;-2.70;99.90
11991;DHT22;6055;52.522;13.446;2022-12-18T16:21:55;-2.70;99.90
11991;DHT22;6055;52.522;13.446;2022-12-18T16:24:31;-2.70;99.90
11991;DHT22;6055;52.522;13.446;2022-12-18T16:26:58;-2.60;99.90
11991;DHT22;6055;52.522;13.446;2022-12-18T16:29:25;-2.70;99.90
11991;DHT22;6055;52.522;13.446;2022-12-18T16:31:56;-2.60;99.90
11991;DHT22;6055;52.522;13.446;2022-12-18T16:34:24;-2.70;99.90
11991;DHT22;6055;52.522;13.446;2022-12-18T16:36:56;-2.70;99.90
11991;DHT22;6055;52.522;13.446;2022-12-18T16:39:23;-2.70;99.90
11991;DHT22;6055;52.522;13.446;2022-12-18T16:41:49;-2.70;99.90
11991;DHT22;6055;52.522;13.446;2022-12-18T16:44:15;-2.70;99.90
11991;DHT22;6055;52.522;13.446;2022-12-18T16:46:41;-2.70;99.90
11991;DHT22;6055;52.522;13.446;2022-12-18T16:49:15;-2.70;99.90
11991;DHT22;6055;52.522;13.446;2022-12-18T16:51:41;-2.70;99.90
11991;DHT22;6055;52.522;13.446;2022-12-18T16:54:07;-2.70;99.90
11991;DHT22;6055;52.522;13.446;2022-12-18T16:56:32;-2.70;99.90
11991;DHT22;6055;52.522;13.446;2022-12-18T16:59:00;-2.70;99.90
11991;DHT22;6055;52.522;13.446;2022-12-18T17:01:27;-2.70;99.90
11991;DHT22;6055;52.522;13.446;2022-12-18T17:03:58;-2.70;99.90
11991;DHT22;6055;52.522;13.446;2022-12-18T17:06:25;-2.70;99.90
11991;DHT22;6055;52.522;13.446;2022-12-18T17:08:59;-2.70;99.90
11991;DHT22;6055;52.522;13.446;2022-12-18T17:11:26;-2.70;99.90
11991;DHT22;6055;52.522;13.446;2022-12-18T17:13:51;-2.70;99.90
11991;DHT22;6055;52.522;13.446;2022-12-18T17:16:18;-2.70;99.90
11991;DHT22;6055;52.522;13.446;2022-12-18T17:18:43;-2.70;99.90
11991;DHT22;6055;52.522;13.446;2022-12-18T17:21:10;-2.80;99.90
11991;DHT22;6055;52.522;13.446;2022-12-18T17:23:36;-2.80;99.90
11991;DHT22;6055;52.522;13.446;2022-12-18T17:26:03;-2.80;99.90
11991;DHT22;6055;52.522;13.446;2022-12-18T17:28:29;-2.80;99.90
11991;DHT22;6055;52.522;13.446;2022-12-18T17:30:55;-2.90;99.90
11991;DHT22;6055;52.522;13.446;2022-12-18T17:33:22;-2.90;99.90
11991;DHT22;6055;52.522;13.446;2022-12-18T17:35:50;-2.90;99.90